AirNav   TITAN Aviation Fuels
 
 1226 users online  

29MI Sawyer Field Airport
Mason, Michigan, USA

GOING TO MASON?


FAA INFORMATION EFFECTIVE 22 APRIL 2021

Location

FAA Identifier: 29MI
Lat/Long: 42-36-00.1290N 084-26-59.9050W
42-36.002150N 084-26.998417W
42.6000358,-84.4499736
(estimated)
Elevation: 910 ft. / 277 m (estimated)
Variation: 04W (1985)
From city: 2 miles NW of MASON, MI
Time zone: UTC -4 (UTC -5 during Standard Time)
Zip code: 48854

Airport Operations

Airport use: Private use. Permission required prior to landing
Activation date: 12/1987
Control tower: no
ARTCC: CLEVELAND CENTER
FSS: LANSING FLIGHT SERVICE STATION
Attendance: INTMT
Wind indicator: yes
Segmented circle: no

Airport Communications

WX AWOS-3 at TEW (2.4 nm SE): 119.425 (517-676-5607)
WX ASOS at LAN (12 nm NW): PHONE 517-908-8494
WX AWOS-3 at FPK (16 nm W): 118.075 (517-543-2288)

Nearby radio navigation aids

VOR radial/distance  VOR name  Freq  Var
LFDr028/35.2LITCHFIELD VOR/DME111.2005W
FNTr241/38.0FLINT VORTAC116.9006W
SVMr290/39.6SALEM VORTAC114.3003W

Airport Services

Runway Information

Runway 9/27

Dimensions: 2100 x 150 ft. / 640 x 46 m
Surface: turf, in good condition
RUNWAY 9  RUNWAY 27
Traffic pattern: leftright
Displaced threshold: 440 ft.no
Obstructions: 20 ft. plinenone

Airport Ownership and Management from official FAA records

Ownership: Privately-owned
Owner: JAMES SAWYER
2050 WASHINGTON RD APT 3015
HOLT, MI 48842-8632
Phone 517-244-0993
Manager: JAMES SAWYER
2050 WASHINGTON RD APT 3015
HOLT, MI 48842-8632
Phone 517-244-0993

Airport Operational Statistics

Aircraft based on the field: 2
Single engine airplanes: 2
    
Aircraft operations: 150/year
50% transient general aviation
50% local general aviation

Additional Remarks

NO SNOW REMOVAL, CALL AMGR TO CONFRM RWY COND.
AMGR MONITORS 122.75.
FOR CD CTC GREAT LAKES APCH AT 269-459-3345, WHEN APCH CLSD CTC CLEVELAND ARTCC AT 440-774-0224/0490.

Instrument Procedures

There are no published instrument procedures at 29MI.

Some nearby airports with instrument procedures:

KTEW - Mason Jewett Field Airport (2 nm SE)
KLAN - Capital Region International Airport (12 nm NW)
KFPK - Fitch H Beach Airport (16 nm W)
4D0 - Abrams Municipal Airport (16 nm NW)
KJXN - Jackson County Airport-Reynolds Field (20 nm S)
 
Loc | Ops | Rwys | IFR | FBO | Links
Com | Nav | Svcs | Stats | Notes
Area around 29MI (Sawyer Field Airport)
 
Road maps at: MapQuest Bing Google
 
Aerial photo
No photo
 
Sectional chart

 
Airport distance calculator
Flying to Sawyer Field Airport? Find the distance to fly.

From to 29MI

Sunrise and sunset
Times for 05-May-2021
 Local
(UTC-4)
 Zulu
(UTC)
Morning civil twilight05:5709:57
Sunrise06:2810:28
Sunset20:4100:41
Evening civil twilight21:1201:12

Current date and time
Zulu (UTC)  05-May-2021 22:15:57
Local (UTC-4)  05-May-2021 18:15:57
 
METAR
KTEW 
2nm SE 
052155Z AUTO 35012G15KT 10SM SCT050 13/01 A3006 RMK AO2 T01250005
KLAN 
12nm NW 
052153Z 34007KT 10SM SCT060 14/01 A3006 RMK AO2 SLP182 T01390006
KFPK 
16nm W 
052155Z AUTO 34007KT 10SM SCT060 SCT070 14/00 A3004 RMK AO2 T01421004
TAF
KLAN 
12nm NW 
051740Z 0518/0618 33010G18KT P6SM BKN035 FM052100 32009KT P6SM BKN035 FM060100 00000KT P6SM SKC FM061300 09001KT P6SM -RA OVC050 FM061600 18004KT 5SM -RA BR OVC025
NOTAMs
Click for the latest NOTAMs
NOTAMs are issued by the DoD/FAA and will open in a separate window not controlled by AirNav.

 

 
 

Would you like to see your business listed on this page?

 If your business provides an interesting product or service to pilots, flight crews, aircraft, or users of the Sawyer Field Airport, you should consider listing it here.  To start the listing process, click on the button below
 
Add a business
 

Other Pages about Sawyer Field Airport

Update a link
 
Copyright © AirNav, LLC. All rights reserved. Privacy Policy  Contact